sensor_id;sensor_type;location;lat;lon;timestamp;P1;durP1;ratioP1;P2;durP2;ratioP2
53971;SDS011;40530;53.062;6.078;2024-03-23T00:54:45;27.45;;;5.05;;
53971;SDS011;40530;53.062;6.078;2024-03-23T00:57:11;28.42;;;4.72;;
53971;SDS011;40530;53.062;6.078;2024-03-23T00:59:37;33.10;;;4.82;;
53971;SDS011;40530;53.062;6.078;2024-03-23T01:02:03;36.50;;;6.30;;
53971;SDS011;40530;53.062;6.078;2024-03-23T01:04:29;26.90;;;4.85;;
53971;SDS011;40530;53.062;6.078;2024-03-23T01:06:55;27.40;;;4.50;;
53971;SDS011;40530;53.062;6.078;2024-03-23T01:09:21;25.10;;;4.55;;
53971;SDS011;40530;53.062;6.078;2024-03-23T01:11:47;28.00;;;4.78;;
53971;SDS011;40530;53.062;6.078;2024-03-23T01:14:13;22.42;;;3.38;;
53971;SDS011;40530;53.062;6.078;2024-03-23T01:16:39;24.75;;;4.60;;
53971;SDS011;40530;53.062;6.078;2024-03-23T01:19:05;24.63;;;4.15;;
53971;SDS011;40530;53.062;6.078;2024-03-23T01:21:31;25.73;;;4.22;;
53971;SDS011;40530;53.062;6.078;2024-03-23T01:23:58;33.95;;;4.68;;
53971;SDS011;40530;53.062;6.078;2024-03-23T01:26:24;32.15;;;4.15;;
53971;SDS011;40530;53.062;6.078;2024-03-23T01:28:50;24.77;;;4.78;;
53971;SDS011;40530;53.062;6.078;2024-03-23T01:31:16;26.98;;;4.03;;
53971;SDS011;40530;53.062;6.078;2024-03-23T01:33:42;22.45;;;4.53;;
53971;SDS011;40530;53.062;6.078;2024-03-23T01:36:08;23.27;;;4.80;;
53971;SDS011;40530;53.062;6.078;2024-03-23T01:38:34;27.65;;;5.85;;
53971;SDS011;40530;53.062;6.078;2024-03-23T01:41:01;30.17;;;4.60;;
53971;SDS011;40530;53.062;6.078;2024-03-23T01:43:27;27.75;;;4.85;;
53971;SDS011;40530;53.062;6.078;2024-03-23T01:45:53;33.40;;;5.45;;
53971;SDS011;40530;53.062;6.078;2024-03-23T01:48:20;25.25;;;5.07;;
53971;SDS011;40530;53.062;6.078;2024-03-23T01:50:46;25.67;;;4.53;;
53971;SDS011;40530;53.062;6.078;2024-03-23T01:53:13;28.25;;;4.93;;
53971;SDS011;40530;53.062;6.078;2024-03-23T01:55:42;26.95;;;4.50;;
53971;SDS011;40530;53.062;6.078;2024-03-23T01:58:08;31.85;;;6.55;;
53971;SDS011;40530;53.062;6.078;2024-03-23T02:00:34;35.15;;;4.50;;
53971;SDS011;40530;53.062;6.078;2024-03-23T02:03:00;28.17;;;5.55;;
53971;SDS011;40530;53.062;6.078;2024-03-23T02:05:26;20.60;;;3.85;;
53971;SDS011;40530;53.062;6.078;2024-03-23T02:07:52;22.95;;;4.32;;
53971;SDS011;40530;53.062;6.078;2024-03-23T02:10:18;23.73;;;4.32;;
53971;SDS011;40530;53.062;6.078;2024-03-23T02:12:44;29.35;;;4.93;;
53971;SDS011;40530;53.062;6.078;2024-03-23T02:15:10;28.00;;;4.72;;
53971;SDS011;40530;53.062;6.078;2024-03-23T02:17:37;24.08;;;3.63;;
53971;SDS011;40530;53.062;6.078;2024-03-23T02:20:03;30.88;;;5.25;;
53971;SDS011;40530;53.062;6.078;2024-03-23T02:22:37;28.65;;;4.13;;
53971;SDS011;40530;53.062;6.078;2024-03-23T02:25:06;29.88;;;4.65;;
53971;SDS011;40530;53.062;6.078;2024-03-23T02:27:32;25.85;;;4.00;;
53971;SDS011;40530;53.062;6.078;2024-03-23T02:30:00;23.50;;;4.88;;
53971;SDS011;40530;53.062;6.078;2024-03-23T02:32:26;31.00;;;4.80;;
53971;SDS011;40530;53.062;6.078;2024-03-23T02:34:53;22.48;;;4.43;;
53971;SDS011;40530;53.062;6.078;2024-03-23T02:37:19;30.27;;;4.18;;
53971;SDS011;40530;53.062;6.078;2024-03-23T02:39:45;21.25;;;4.53;;
53971;SDS011;40530;53.062;6.078;2024-03-23T02:42:11;20.17;;;3.97;;
53971;SDS011;40530;53.062;6.078;2024-03-23T02:44:37;28.52;;;3.35;;
53971;SDS011;40530;53.062;6.078;2024-03-23T02:47:03;24.40;;;3.30;;
53971;SDS011;40530;53.062;6.078;2024-03-23T02:49:29;24.25;;;4.47;;
53971;SDS011;40530;53.062;6.078;2024-03-23T02:51:55;19.20;;;3.58;;
53971;SDS011;40530;53.062;6.078;2024-03-23T02:54:21;25.00;;;5.00;;
53971;SDS011;40530;53.062;6.078;2024-03-23T02:56:47;25.55;;;3.45;;
53971;SDS011;40530;53.062;6.078;2024-03-23T02:59:13;19.70;;;3.47;;
53971;SDS011;40530;53.062;6.078;2024-03-23T03:01:39;27.50;;;5.10;;
53971;SDS011;40530;53.062;6.078;2024-03-23T03:04:05;24.67;;;4.75;;
53971;SDS011;40530;53.062;6.078;2024-03-23T03:06:31;21.75;;;4.35;;
53971;SDS011;40530;53.062;6.078;2024-03-23T03:08:57;19.95;;;3.28;;
53971;SDS011;40530;53.062;6.078;2024-03-23T03:11:23;13.40;;;3.55;;
53971;SDS011;40530;53.062;6.078;2024-03-23T03:13:49;16.85;;;2.78;;
53971;SDS011;40530;53.062;6.078;2024-03-23T03:16:16;27.85;;;3.60;;
53971;SDS011;40530;53.062;6.078;2024-03-23T03:18:42;22.90;;;3.15;;
53971;SDS011;40530;53.062;6.078;2024-03-23T03:21:08;16.63;;;3.63;;
53971;SDS011;40530;53.062;6.078;2024-03-23T03:23:39;24.13;;;3.10;;
53971;SDS011;40530;53.062;6.078;2024-03-23T03:26:05;23.00;;;4.18;;
53971;SDS011;40530;53.062;6.078;2024-03-23T03:28:31;22.88;;;4.22;;
53971;SDS011;40530;53.062;6.078;2024-03-23T03:30:58;25.05;;;3.50;;
53971;SDS011;40530;53.062;6.078;2024-03-23T03:33:25;19.58;;;3.40;;
53971;SDS011;40530;53.062;6.078;2024-03-23T03:35:51;26.65;;;3.97;;
53971;SDS011;40530;53.062;6.078;2024-03-23T03:38:18;22.35;;;4.55;;
53971;SDS011;40530;53.062;6.078;2024-03-23T03:40:44;20.23;;;2.72;;
53971;SDS011;40530;53.062;6.078;2024-03-23T03:43:10;18.42;;;3.15;;
53971;SDS011;40530;53.062;6.078;2024-03-23T03:45:36;24.85;;;4.05;;
53971;SDS011;40530;53.062;6.078;2024-03-23T03:48:02;21.27;;;3.67;;
53971;SDS011;40530;53.062;6.078;2024-03-23T03:50:28;14.95;;;2.65;;
53971;SDS011;40530;53.062;6.078;2024-03-23T03:52:54;25.45;;;3.55;;
53971;SDS011;40530;53.062;6.078;2024-03-23T03:55:20;17.75;;;2.40;;
53971;SDS011;40530;53.062;6.078;2024-03-23T03:57:46;22.92;;;3.45;;
53971;SDS011;40530;53.062;6.078;2024-03-23T04:00:12;15.55;;;2.40;;
53971;SDS011;40530;53.062;6.078;2024-03-23T04:02:39;22.42;;;2.70;;
53971;SDS011;40530;53.062;6.078;2024-03-23T04:05:05;16.23;;;3.22;;
53971;SDS011;40530;53.062;6.078;2024-03-23T04:07:31;21.17;;;3.15;;
53971;SDS011;40530;53.062;6.078;2024-03-23T04:09:57;16.40;;;3.45;;
53971;SDS011;40530;53.062;6.078;2024-03-23T04:12:23;20.23;;;3.50;;
53971;SDS011;40530;53.062;6.078;2024-03-23T04:14:50;26.10;;;4.53;;
53971;SDS011;40530;53.062;6.078;2024-03-23T04:17:16;16.65;;;2.67;;
53971;SDS011;40530;53.062;6.078;2024-03-23T04:19:42;16.15;;;2.83;;
53971;SDS011;40530;53.062;6.078;2024-03-23T04:22:08;16.25;;;2.67;;
53971;SDS011;40530;53.062;6.078;2024-03-23T04:24:34;18.55;;;3.38;;
53971;SDS011;40530;53.062;6.078;2024-03-23T04:27:00;19.40;;;3.67;;
53971;SDS011;40530;53.062;6.078;2024-03-23T04:29:26;20.83;;;4.10;;
53971;SDS011;40530;53.062;6.078;2024-03-23T04:31:52;18.60;;;2.72;;
53971;SDS011;40530;53.062;6.078;2024-03-23T04:34:18;19.65;;;3.70;;
53971;SDS011;40530;53.062;6.078;2024-03-23T04:36:44;22.23;;;4.20;;
53971;SDS011;40530;53.062;6.078;2024-03-23T04:39:10;43.60;;;17.00;;
53971;SDS011;40530;53.062;6.078;2024-03-23T04:41:36;21.52;;;2.83;;
53971;SDS011;40530;53.062;6.078;2024-03-23T04:44:02;16.92;;;3.00;;
53971;SDS011;40530;53.062;6.078;2024-03-23T04:46:29;23.90;;;3.08;;
53971;SDS011;40530;53.062;6.078;2024-03-23T04:48:55;16.95;;;2.63;;
53971;SDS011;40530;53.062;6.078;2024-03-23T04:51:24;25.33;;;3.42;;
53971;SDS011;40530;53.062;6.078;2024-03-23T04:53:51;19.95;;;2.85;;
53971;SDS011;40530;53.062;6.078;2024-03-23T04:56:17;17.00;;;2.50;;
53971;SDS011;40530;53.062;6.078;2024-03-23T04:58:43;17.02;;;2.80;;
53971;SDS011;40530;53.062;6.078;2024-03-23T05:01:10;16.92;;;2.25;;
53971;SDS011;40530;53.062;6.078;2024-03-23T05:03:36;24.13;;;2.95;;
53971;SDS011;40530;53.062;6.078;2024-03-23T05:06:02;19.65;;;3.90;;
53971;SDS011;40530;53.062;6.078;2024-03-23T05:08:28;25.60;;;3.17;;
53971;SDS011;40530;53.062;6.078;2024-03-23T05:10:55;22.45;;;2.33;;
53971;SDS011;40530;53.062;6.078;2024-03-23T05:13:21;21.05;;;3.28;;
53971;SDS011;40530;53.062;6.078;2024-03-23T05:15:51;24.40;;;2.60;;
53971;SDS011;40530;53.062;6.078;2024-03-23T05:18:17;59.03;;;22.67;;
53971;SDS011;40530;53.062;6.078;2024-03-23T05:20:43;17.08;;;2.65;;
53971;SDS011;40530;53.062;6.078;2024-03-23T05:23:09;15.57;;;2.15;;
53971;SDS011;40530;53.062;6.078;2024-03-23T05:25:38;18.35;;;2.55;;
53971;SDS011;40530;53.062;6.078;2024-03-23T05:28:04;17.35;;;3.85;;
53971;SDS011;40530;53.062;6.078;2024-03-23T05:30:30;22.75;;;3.03;;
53971;SDS011;40530;53.062;6.078;2024-03-23T05:32:56;20.85;;;3.47;;
53971;SDS011;40530;53.062;6.078;2024-03-23T05:35:22;22.55;;;2.70;;
53971;SDS011;40530;53.062;6.078;2024-03-23T05:37:48;18.58;;;2.92;;
53971;SDS011;40530;53.062;6.078;2024-03-23T05:40:14;18.00;;;2.42;;
53971;SDS011;40530;53.062;6.078;2024-03-23T05:42:41;14.18;;;1.88;;
53971;SDS011;40530;53.062;6.078;2024-03-23T05:45:07;15.20;;;2.67;;
53971;SDS011;40530;53.062;6.078;2024-03-23T05:47:33;27.42;;;3.15;;
53971;SDS011;40530;53.062;6.078;2024-03-23T05:49:59;17.27;;;2.42;;
53971;SDS011;40530;53.062;6.078;2024-03-23T05:52:26;15.88;;;2.08;;
53971;SDS011;40530;53.062;6.078;2024-03-23T05:54:53;15.82;;;3.33;;
53971;SDS011;40530;53.062;6.078;2024-03-23T05:57:19;14.70;;;2.00;;
53971;SDS011;40530;53.062;6.078;2024-03-23T05:59:45;18.90;;;3.03;;
53971;SDS011;40530;53.062;6.078;2024-03-23T06:02:11;16.15;;;2.05;;
53971;SDS011;40530;53.062;6.078;2024-03-23T06:04:37;24.52;;;3.47;;
53971;SDS011;40530;53.062;6.078;2024-03-23T06:07:03;24.10;;;3.70;;
53971;SDS011;40530;53.062;6.078;2024-03-23T06:09:38;19.85;;;3.15;;
53971;SDS011;40530;53.062;6.078;2024-03-23T06:12:04;17.83;;;3.55;;
53971;SDS011;40530;53.062;6.078;2024-03-23T06:14:30;14.48;;;3.75;;
53971;SDS011;40530;53.062;6.078;2024-03-23T06:16:58;18.60;;;2.40;;
53971;SDS011;40530;53.062;6.078;2024-03-23T06:19:24;20.13;;;2.50;;
53971;SDS011;40530;53.062;6.078;2024-03-23T06:21:52;22.02;;;3.92;;
53971;SDS011;40530;53.062;6.078;2024-03-23T06:24:18;17.75;;;3.33;;
53971;SDS011;40530;53.062;6.078;2024-03-23T06:26:44;14.20;;;3.78;;
53971;SDS011;40530;53.062;6.078;2024-03-23T06:29:10;16.77;;;2.95;;
53971;SDS011;40530;53.062;6.078;2024-03-23T06:31:36;13.57;;;3.05;;
53971;SDS011;40530;53.062;6.078;2024-03-23T06:34:02;14.85;;;3.08;;
53971;SDS011;40530;53.062;6.078;2024-03-23T06:36:28;22.98;;;3.03;;
53971;SDS011;40530;53.062;6.078;2024-03-23T06:38:55;11.63;;;2.30;;
53971;SDS011;40530;53.062;6.078;2024-03-23T06:41:22;16.60;;;2.08;;
53971;SDS011;40530;53.062;6.078;2024-03-23T06:43:48;11.02;;;2.08;;
53971;SDS011;40530;53.062;6.078;2024-03-23T06:46:14;14.05;;;2.10;;
53971;SDS011;40530;53.062;6.078;2024-03-23T06:48:40;15.85;;;2.30;;
53971;SDS011;40530;53.062;6.078;2024-03-23T06:51:06;9.07;;;1.55;;
53971;SDS011;40530;53.062;6.078;2024-03-23T06:53:34;12.85;;;1.70;;
53971;SDS011;40530;53.062;6.078;2024-03-23T06:56:00;15.68;;;3.70;;
53971;SDS011;40530;53.062;6.078;2024-03-23T06:58:26;15.80;;;3.53;;
53971;SDS011;40530;53.062;6.078;2024-03-23T07:00:52;9.55;;;2.17;;
53971;SDS011;40530;53.062;6.078;2024-03-23T07:03:18;11.88;;;1.70;;
53971;SDS011;40530;53.062;6.078;2024-03-23T07:05:44;13.80;;;2.33;;
53971;SDS011;40530;53.062;6.078;2024-03-23T07:08:11;10.75;;;1.92;;
53971;SDS011;40530;53.062;6.078;2024-03-23T07:10:40;6.20;;;1.70;;
53971;SDS011;40530;53.062;6.078;2024-03-23T07:13:06;8.35;;;1.20;;
53971;SDS011;40530;53.062;6.078;2024-03-23T07:15:33;8.15;;;2.75;;
53971;SDS011;40530;53.062;6.078;2024-03-23T07:17:59;6.80;;;1.83;;
53971;SDS011;40530;53.062;6.078;2024-03-23T07:20:25;8.85;;;2.13;;
53971;SDS011;40530;53.062;6.078;2024-03-23T07:22:52;9.45;;;1.30;;
53971;SDS011;40530;53.062;6.078;2024-03-23T07:25:18;15.45;;;1.52;;
53971;SDS011;40530;53.062;6.078;2024-03-23T07:27:44;13.18;;;2.00;;
53971;SDS011;40530;53.062;6.078;2024-03-23T07:30:10;11.18;;;1.70;;
53971;SDS011;40530;53.062;6.078;2024-03-23T07:32:36;7.47;;;1.40;;
53971;SDS011;40530;53.062;6.078;2024-03-23T07:35:02;11.63;;;2.33;;
53971;SDS011;40530;53.062;6.078;2024-03-23T07:37:29;10.40;;;1.70;;
53971;SDS011;40530;53.062;6.078;2024-03-23T07:39:56;7.03;;;1.67;;
53971;SDS011;40530;53.062;6.078;2024-03-23T07:42:22;14.65;;;2.03;;
53971;SDS011;40530;53.062;6.078;2024-03-23T07:44:50;10.13;;;2.03;;
53971;SDS011;40530;53.062;6.078;2024-03-23T07:47:16;8.85;;;1.75;;
53971;SDS011;40530;53.062;6.078;2024-03-23T07:49:42;14.35;;;2.15;;
53971;SDS011;40530;53.062;6.078;2024-03-23T07:52:08;8.20;;;2.42;;
53971;SDS011;40530;53.062;6.078;2024-03-23T07:54:34;15.75;;;2.42;;
53971;SDS011;40530;53.062;6.078;2024-03-23T07:57:01;18.00;;;2.88;;
53971;SDS011;40530;53.062;6.078;2024-03-23T07:59:27;11.52;;;2.22;;
53971;SDS011;40530;53.062;6.078;2024-03-23T08:01:56;16.55;;;2.65;;
53971;SDS011;40530;53.062;6.078;2024-03-23T08:04:22;14.45;;;2.63;;
53971;SDS011;40530;53.062;6.078;2024-03-23T08:06:48;14.05;;;2.33;;
53971;SDS011;40530;53.062;6.078;2024-03-23T08:09:14;14.32;;;2.03;;
53971;SDS011;40530;53.062;6.078;2024-03-23T08:11:40;16.25;;;2.60;;
53971;SDS011;40530;53.062;6.078;2024-03-23T08:14:09;16.75;;;2.58;;
53971;SDS011;40530;53.062;6.078;2024-03-23T08:16:35;7.63;;;3.15;;
53971;SDS011;40530;53.062;6.078;2024-03-23T08:19:01;15.40;;;3.13;;
53971;SDS011;40530;53.062;6.078;2024-03-23T08:21:28;13.55;;;3.00;;
53971;SDS011;40530;53.062;6.078;2024-03-23T08:23:55;13.65;;;2.53;;
53971;SDS011;40530;53.062;6.078;2024-03-23T08:26:21;11.15;;;2.28;;
53971;SDS011;40530;53.062;6.078;2024-03-23T08:28:47;15.75;;;2.22;;
53971;SDS011;40530;53.062;6.078;2024-03-23T08:31:13;18.83;;;2.50;;
53971;SDS011;40530;53.062;6.078;2024-03-23T08:33:39;16.48;;;2.75;;
53971;SDS011;40530;53.062;6.078;2024-03-23T08:36:08;14.98;;;2.88;;
53971;SDS011;40530;53.062;6.078;2024-03-23T08:38:34;12.25;;;2.35;;
53971;SDS011;40530;53.062;6.078;2024-03-23T08:41:04;16.63;;;3.00;;
53971;SDS011;40530;53.062;6.078;2024-03-23T08:43:35;16.38;;;2.72;;
53971;SDS011;40530;53.062;6.078;2024-03-23T08:46:34;20.02;;;3.08;;
53971;SDS011;40530;53.062;6.078;2024-03-23T08:48:53;14.07;;;2.80;;
53971;SDS011;40530;53.062;6.078;2024-03-23T08:51:19;21.58;;;2.95;;
53971;SDS011;40530;53.062;6.078;2024-03-23T08:53:45;11.75;;;2.25;;
53971;SDS011;40530;53.062;6.078;2024-03-23T08:56:11;11.57;;;2.78;;
53971;SDS011;40530;53.062;6.078;2024-03-23T08:58:38;8.63;;;1.40;;
53971;SDS011;40530;53.062;6.078;2024-03-23T09:01:08;9.50;;;1.42;;
53971;SDS011;40530;53.062;6.078;2024-03-23T09:03:34;11.38;;;1.77;;
53971;SDS011;40530;53.062;6.078;2024-03-23T09:06:01;6.05;;;1.70;;
53971;SDS011;40530;53.062;6.078;2024-03-23T09:08:28;12.15;;;2.50;;
53971;SDS011;40530;53.062;6.078;2024-03-23T09:10:54;15.23;;;4.13;;
53971;SDS011;40530;53.062;6.078;2024-03-23T09:13:20;11.90;;;2.55;;
53971;SDS011;40530;53.062;6.078;2024-03-23T09:15:47;16.45;;;3.70;;
53971;SDS011;40530;53.062;6.078;2024-03-23T09:18:13;12.80;;;2.22;;
53971;SDS011;40530;53.062;6.078;2024-03-23T09:20:39;11.25;;;2.08;;
53971;SDS011;40530;53.062;6.078;2024-03-23T09:23:06;11.05;;;2.42;;
53971;SDS011;40530;53.062;6.078;2024-03-23T09:25:32;8.77;;;2.15;;
53971;SDS011;40530;53.062;6.078;2024-03-23T09:28:01;14.77;;;1.85;;
53971;SDS011;40530;53.062;6.078;2024-03-23T09:30:27;10.65;;;1.88;;
53971;SDS011;40530;53.062;6.078;2024-03-23T09:32:53;13.98;;;2.40;;
53971;SDS011;40530;53.062;6.078;2024-03-23T09:35:19;14.63;;;2.13;;
53971;SDS011;40530;53.062;6.078;2024-03-23T09:37:45;14.02;;;3.15;;
53971;SDS011;40530;53.062;6.078;2024-03-23T09:40:11;15.55;;;2.72;;
53971;SDS011;40530;53.062;6.078;2024-03-23T09:42:37;14.15;;;2.63;;
53971;SDS011;40530;53.062;6.078;2024-03-23T09:45:06;13.65;;;2.80;;
53971;SDS011;40530;53.062;6.078;2024-03-23T09:47:32;8.75;;;1.67;;
53971;SDS011;40530;53.062;6.078;2024-03-23T09:49:59;14.48;;;2.03;;
53971;SDS011;40530;53.062;6.078;2024-03-23T09:52:25;13.43;;;2.05;;
53971;SDS011;40530;53.062;6.078;2024-03-23T09:54:51;10.23;;;2.03;;
53971;SDS011;40530;53.062;6.078;2024-03-23T09:57:17;11.57;;;2.38;;
53971;SDS011;40530;53.062;6.078;2024-03-23T09:59:44;10.70;;;1.70;;
53971;SDS011;40530;53.062;6.078;2024-03-23T10:02:10;15.60;;;4.30;;
53971;SDS011;40530;53.062;6.078;2024-03-23T10:04:41;27.95;;;15.60;;
53971;SDS011;40530;53.062;6.078;2024-03-23T10:07:26;11.65;;;2.10;;
53971;SDS011;40530;53.062;6.078;2024-03-23T10:09:55;13.75;;;2.13;;
53971;SDS011;40530;53.062;6.078;2024-03-23T10:12:22;11.50;;;2.20;;
53971;SDS011;40530;53.062;6.078;2024-03-23T10:14:49;9.57;;;1.98;;
53971;SDS011;40530;53.062;6.078;2024-03-23T10:17:18;11.63;;;2.75;;
53971;SDS011;40530;53.062;6.078;2024-03-23T10:19:45;15.30;;;3.30;;
53971;SDS011;40530;53.062;6.078;2024-03-23T10:22:17;19.52;;;4.70;;
53971;SDS011;40530;53.062;6.078;2024-03-23T10:24:43;12.77;;;3.23;;
53971;SDS011;40530;53.062;6.078;2024-03-23T10:27:12;11.13;;;2.03;;
53971;SDS011;40530;53.062;6.078;2024-03-23T10:29:41;11.60;;;2.30;;
53971;SDS011;40530;53.062;6.078;2024-03-23T10:32:07;11.05;;;1.55;;
53971;SDS011;40530;53.062;6.078;2024-03-23T10:34:33;9.23;;;1.70;;
53971;SDS011;40530;53.062;6.078;2024-03-23T10:37:00;14.07;;;1.77;;
53971;SDS011;40530;53.062;6.078;2024-03-23T10:39:27;8.93;;;1.63;;
53971;SDS011;40530;53.062;6.078;2024-03-23T10:41:53;19.70;;;10.05;;
53971;SDS011;40530;53.062;6.078;2024-03-23T10:44:22;9.23;;;2.25;;
53971;SDS011;40530;53.062;6.078;2024-03-23T10:46:51;12.63;;;3.58;;
53971;SDS011;40530;53.062;6.078;2024-03-23T10:49:23;9.00;;;2.25;;
53971;SDS011;40530;53.062;6.078;2024-03-23T10:51:50;13.30;;;3.28;;
53971;SDS011;40530;53.062;6.078;2024-03-23T10:54:17;10.77;;;2.22;;
53971;SDS011;40530;53.062;6.078;2024-03-23T10:56:44;7.30;;;2.03;;
53971;SDS011;40530;53.062;6.078;2024-03-23T10:59:11;7.70;;;1.23;;
53971;SDS011;40530;53.062;6.078;2024-03-23T11:01:53;7.20;;;1.50;;
53971;SDS011;40530;53.062;6.078;2024-03-23T11:04:35;6.87;;;1.33;;
53971;SDS011;40530;53.062;6.078;2024-03-23T11:07:03;9.80;;;2.30;;
53971;SDS011;40530;53.062;6.078;2024-03-23T11:09:52;8.20;;;2.53;;
53971;SDS011;40530;53.062;6.078;2024-03-23T11:14:44;10.02;;;1.60;;
53971;SDS011;40530;53.062;6.078;2024-03-23T11:17:10;16.15;;;1.70;;
53971;SDS011;40530;53.062;6.078;2024-03-23T11:19:36;9.60;;;1.65;;
53971;SDS011;40530;53.062;6.078;2024-03-23T11:22:03;11.05;;;2.38;;
53971;SDS011;40530;53.062;6.078;2024-03-23T11:24:30;10.02;;;2.30;;
53971;SDS011;40530;53.062;6.078;2024-03-23T11:26:56;18.98;;;2.75;;
53971;SDS011;40530;53.062;6.078;2024-03-23T11:29:26;10.45;;;1.45;;
53971;SDS011;40530;53.062;6.078;2024-03-23T11:31:54;9.10;;;1.83;;
53971;SDS011;40530;53.062;6.078;2024-03-23T11:34:20;4.78;;;1.20;;
53971;SDS011;40530;53.062;6.078;2024-03-23T11:36:48;6.13;;;1.10;;
53971;SDS011;40530;53.062;6.078;2024-03-23T11:39:17;7.50;;;2.67;;
53971;SDS011;40530;53.062;6.078;2024-03-23T11:41:47;2.30;;;0.68;;
53971;SDS011;40530;53.062;6.078;2024-03-23T11:44:14;3.85;;;0.98;;
53971;SDS011;40530;53.062;6.078;2024-03-23T11:46:40;7.00;;;2.42;;
53971;SDS011;40530;53.062;6.078;2024-03-23T11:49:06;6.50;;;2.00;;
53971;SDS011;40530;53.062;6.078;2024-03-23T11:51:32;5.35;;;1.02;;
53971;SDS011;40530;53.062;6.078;2024-03-23T11:54:07;2.17;;;0.70;;
53971;SDS011;40530;53.062;6.078;2024-03-23T11:56:33;2.13;;;0.75;;
53971;SDS011;40530;53.062;6.078;2024-03-23T11:58:59;4.40;;;1.25;;
53971;SDS011;40530;53.062;6.078;2024-03-23T12:01:25;3.30;;;0.68;;
53971;SDS011;40530;53.062;6.078;2024-03-23T12:03:51;8.75;;;1.38;;
53971;SDS011;40530;53.062;6.078;2024-03-23T12:06:19;8.63;;;1.98;;
53971;SDS011;40530;53.062;6.078;2024-03-23T12:08:45;8.63;;;1.60;;
53971;SDS011;40530;53.062;6.078;2024-03-23T12:11:13;13.25;;;2.70;;
53971;SDS011;40530;53.062;6.078;2024-03-23T12:13:40;15.95;;;3.35;;
53971;SDS011;40530;53.062;6.078;2024-03-23T12:18:37;9.43;;;2.20;;
53971;SDS011;40530;53.062;6.078;2024-03-23T12:21:04;9.50;;;2.05;;
53971;SDS011;40530;53.062;6.078;2024-03-23T12:23:30;7.85;;;1.10;;
53971;SDS011;40530;53.062;6.078;2024-03-23T12:25:56;9.40;;;1.48;;
53971;SDS011;40530;53.062;6.078;2024-03-23T12:28:22;6.22;;;1.20;;
53971;SDS011;40530;53.062;6.078;2024-03-23T12:30:48;10.02;;;2.00;;
53971;SDS011;40530;53.062;6.078;2024-03-23T12:33:14;9.20;;;2.03;;
53971;SDS011;40530;53.062;6.078;2024-03-23T12:35:40;5.53;;;0.90;;
53971;SDS011;40530;53.062;6.078;2024-03-23T12:38:06;6.25;;;0.90;;
53971;SDS011;40530;53.062;6.078;2024-03-23T12:40:32;8.38;;;1.88;;
53971;SDS011;40530;53.062;6.078;2024-03-23T12:42:58;9.77;;;2.08;;
53971;SDS011;40530;53.062;6.078;2024-03-23T12:45:24;10.68;;;1.75;;
53971;SDS011;40530;53.062;6.078;2024-03-23T12:47:50;9.05;;;2.08;;
53971;SDS011;40530;53.062;6.078;2024-03-23T12:50:18;11.25;;;1.70;;
53971;SDS011;40530;53.062;6.078;2024-03-23T12:52:45;9.27;;;1.42;;
53971;SDS011;40530;53.062;6.078;2024-03-23T12:55:11;6.95;;;1.10;;
53971;SDS011;40530;53.062;6.078;2024-03-23T12:57:37;15.13;;;2.50;;
53971;SDS011;40530;53.062;6.078;2024-03-23T13:00:03;11.77;;;2.30;;
53971;SDS011;40530;53.062;6.078;2024-03-23T13:02:29;8.90;;;1.77;;
53971;SDS011;40530;53.062;6.078;2024-03-23T13:04:56;12.88;;;2.65;;
53971;SDS011;40530;53.062;6.078;2024-03-23T13:07:23;16.30;;;3.05;;
53971;SDS011;40530;53.062;6.078;2024-03-23T13:09:52;10.27;;;1.92;;
53971;SDS011;40530;53.062;6.078;2024-03-23T13:12:19;16.83;;;2.67;;
53971;SDS011;40530;53.062;6.078;2024-03-23T13:14:45;15.43;;;2.95;;
53971;SDS011;40530;53.062;6.078;2024-03-23T13:17:11;16.25;;;3.00;;
53971;SDS011;40530;53.062;6.078;2024-03-23T13:19:37;17.67;;;3.97;;
53971;SDS011;40530;53.062;6.078;2024-03-23T13:22:04;17.40;;;2.95;;
53971;SDS011;40530;53.062;6.078;2024-03-23T13:24:30;12.77;;;2.38;;
53971;SDS011;40530;53.062;6.078;2024-03-23T13:26:56;11.63;;;2.22;;
53971;SDS011;40530;53.062;6.078;2024-03-23T13:29:23;14.77;;;2.20;;
53971;SDS011;40530;53.062;6.078;2024-03-23T13:31:49;15.35;;;2.42;;
53971;SDS011;40530;53.062;6.078;2024-03-23T13:34:16;11.20;;;2.10;;
53971;SDS011;40530;53.062;6.078;2024-03-23T13:36:46;18.08;;;2.75;;
53971;SDS011;40530;53.062;6.078;2024-03-23T13:39:13;15.52;;;2.80;;
53971;SDS011;40530;53.062;6.078;2024-03-23T13:44:06;12.35;;;2.67;;
53971;SDS011;40530;53.062;6.078;2024-03-23T13:46:33;13.32;;;2.30;;
53971;SDS011;40530;53.062;6.078;2024-03-23T13:48:59;10.13;;;2.03;;
53971;SDS011;40530;53.062;6.078;2024-03-23T13:51:25;10.25;;;2.10;;
53971;SDS011;40530;53.062;6.078;2024-03-23T13:53:52;8.48;;;2.03;;
53971;SDS011;40530;53.062;6.078;2024-03-23T13:56:19;11.55;;;1.85;;
53971;SDS011;40530;53.062;6.078;2024-03-23T13:58:45;11.30;;;2.15;;
53971;SDS011;40530;53.062;6.078;2024-03-23T14:01:14;12.00;;;1.83;;
53971;SDS011;40530;53.062;6.078;2024-03-23T14:03:41;14.30;;;2.03;;
53971;SDS011;40530;53.062;6.078;2024-03-23T14:06:08;12.80;;;2.38;;
53971;SDS011;40530;53.062;6.078;2024-03-23T14:08:34;18.40;;;2.88;;
53971;SDS011;40530;53.062;6.078;2024-03-23T14:11:01;14.95;;;2.33;;
53971;SDS011;40530;53.062;6.078;2024-03-23T14:13:28;16.30;;;2.60;;
53971;SDS011;40530;53.062;6.078;2024-03-23T14:15:54;12.43;;;2.83;;
53971;SDS011;40530;53.062;6.078;2024-03-23T14:18:20;16.02;;;2.72;;
53971;SDS011;40530;53.062;6.078;2024-03-23T14:20:51;13.65;;;3.72;;
53971;SDS011;40530;53.062;6.078;2024-03-23T14:23:18;18.30;;;3.00;;
53971;SDS011;40530;53.062;6.078;2024-03-23T14:25:44;14.30;;;2.78;;
53971;SDS011;40530;53.062;6.078;2024-03-23T14:28:10;14.10;;;2.30;;
53971;SDS011;40530;53.062;6.078;2024-03-23T14:30:40;14.07;;;2.72;;
53971;SDS011;40530;53.062;6.078;2024-03-23T14:33:06;11.15;;;1.95;;
53971;SDS011;40530;53.062;6.078;2024-03-23T14:35:32;6.43;;;1.20;;
53971;SDS011;40530;53.062;6.078;2024-03-23T14:37:58;7.38;;;2.00;;
53971;SDS011;40530;53.062;6.078;2024-03-23T14:40:25;9.85;;;1.58;;
53971;SDS011;40530;53.062;6.078;2024-03-23T14:42:54;9.82;;;2.35;;
53971;SDS011;40530;53.062;6.078;2024-03-23T14:45:23;8.25;;;1.58;;
53971;SDS011;40530;53.062;6.078;2024-03-23T14:47:50;11.35;;;2.20;;
53971;SDS011;40530;53.062;6.078;2024-03-23T14:50:16;15.57;;;2.38;;
